Time;durP1;ratioP1;P1;durP2;ratioP2;P2;SDS_P1;SDS_P2;PMS_P1;PMS_P2;Temp;Humidity;BMP_temperature;BMP_pressure;BME280_temperature;BME280_humidity;BME280_pressure;Samples;Min_cycle;Max_cycle;Signal;HPM_P1;HPM_P2
2021/08/23 00:00:13;;;;;;;1.57;0.80;;;24.10;62.00;;;;;;5062633;28;20398;-70
2021/08/23 00:02:38;;;;;;;1.10;0.70;;;24.10;62.00;;;;;;5062016;28;20441;-67
2021/08/23 00:05:05;;;;;;;1.30;0.87;;;24.10;62.10;;;;;;5062653;28;20392;-70
2021/08/23 00:07:30;;;;;;;1.57;0.70;;;24.10;62.00;;;;;;5062295;28;20913;-68
2021/08/23 00:09:56;;;;;;;1.30;0.77;;;24.10;62.00;;;;;;5062657;28;20392;-70
2021/08/23 00:12:24;;;;;;;1.27;0.80;;;24.10;62.00;;;;;;5062472;28;20388;-69
2021/08/23 00:14:51;;;;;;;1.23;0.80;;;24.10;62.00;;;;;;5061917;28;20392;-67
2021/08/23 00:17:16;;;;;;;1.23;0.70;;;24.10;62.00;;;;;;5062314;28;20388;-69
2021/08/23 00:19:42;;;;;;;1.40;0.73;;;24.10;62.00;;;;;;5062203;28;20419;-69
2021/08/23 00:24:52;;;;;;;1.73;0.65;;;24.10;62.00;;;;;;5061348;28;20382;-68
2021/08/23 00:27:18;;;;;;;1.60;0.83;;;24.00;62.40;;;;;;5062382;28;20384;-68
2021/08/23 00:29:47;;;;;;;1.73;0.80;;;24.00;62.50;;;;;;5062420;28;20749;-71
2021/08/23 00:32:14;;;;;;;1.52;0.70;;;24.00;62.60;;;;;;5061764;28;20384;-66
2021/08/23 00:34:40;;;;;;;1.50;0.90;;;24.00;62.50;;;;;;5061806;28;20446;-69
2021/08/23 00:37:05;;;;;;;1.35;0.70;;;24.00;62.50;;;;;;5061760;28;20419;-70
2021/08/23 00:39:32;;;;;;;1.17;0.60;;;24.00;62.50;;;;;;5061807;28;20415;-69
2021/08/23 00:41:58;;;;;;;1.17;0.70;;;24.00;62.60;;;;;;5062222;28;20416;-66
2021/08/23 00:44:24;;;;;;;1.40;0.85;;;24.00;62.60;;;;;;5062831;28;20477;-65
2021/08/23 00:46:50;;;;;;;1.13;0.80;;;24.00;62.60;;;;;;5061632;28;20867;-63
2021/08/23 00:49:15;;;;;;;1.38;0.80;;;24.00;62.70;;;;;;5047991;28;20376;-69
2021/08/23 00:51:41;;;;;;;1.43;0.80;;;24.00;62.70;;;;;;5062249;28;20817;-69
2021/08/23 00:54:07;;;;;;;1.40;0.88;;;23.90;62.60;;;;;;5062421;28;20384;-71
2021/08/23 00:56:33;;;;;;;1.20;0.70;;;23.90;62.70;;;;;;5061213;28;20949;-66
2021/08/23 00:58:58;;;;;;;1.20;0.70;;;24.00;62.60;;;;;;5061799;28;20416;-70
2021/08/23 01:01:49;;;;;;;1.37;0.80;;;23.90;62.70;;;;;;5064131;28;20387;-69
2021/08/23 01:04:37;;;;;;;1.25;0.70;;;23.90;62.60;;;;;;5065472;28;20392;-69
2021/08/23 01:07:07;;;;;;;1.55;0.70;;;23.90;62.70;;;;;;5059483;28;20764;-69
2021/08/23 01:09:35;;;;;;;1.60;0.70;;;23.90;62.80;;;;;;5065939;28;20387;-69
2021/08/23 01:12:04;;;;;;;4.80;0.90;;;23.90;62.90;;;;;;5065466;28;20429;-70
2021/08/23 01:14:30;;;;;;;8.65;1.60;;;23.90;63.20;;;;;;5065715;28;20407;-68
2021/08/23 01:16:55;;;;;;;8.80;1.15;;;24.00;63.30;;;;;;5065080;28;20387;-70
2021/08/23 01:19:23;;;;;;;7.47;1.13;;;24.10;63.70;;;;;;5064912;28;20946;-66
2021/08/23 01:21:51;;;;;;;8.35;1.33;;;24.10;63.50;;;;;;5065327;28;20487;-69
2021/08/23 01:24:17;;;;;;;6.80;1.40;;;24.10;63.50;;;;;;5065298;28;20486;-71
2021/08/23 01:26:47;;;;;;;5.93;1.00;;;24.10;63.60;;;;;;5064619;28;20392;-69
2021/08/23 01:29:24;;;;;;;6.97;1.30;;;24.10;63.40;;;;;;5065131;28;20437;-63
2021/08/23 01:31:56;;;;;;;5.77;1.30;;;24.10;63.60;;;;;;5060997;28;20408;-69
2021/08/23 01:34:24;;;;;;;5.00;1.00;;;24.10;63.70;;;;;;5061531;28;20732;-70
2021/08/23 01:36:50;;;;;;;4.50;1.20;;;24.10;63.50;;;;;;5059758;28;20821;-69
2021/08/23 01:39:18;;;;;;;6.13;1.10;;;24.10;63.60;;;;;;5061075;28;20474;-70
2021/08/23 01:41:44;;;;;;;4.93;1.10;;;24.10;63.80;;;;;;5062811;28;20392;-69
2021/08/23 01:44:09;;;;;;;2.33;0.90;;;24.10;63.80;;;;;;5063521;28;20410;-70
2021/08/23 01:46:35;;;;;;;4.03;0.80;;;24.10;64.00;;;;;;5064404;28;20863;-64
2021/08/23 01:49:07;;;;;;;1.73;0.68;;;24.10;63.60;;;;;;5064617;28;20392;-69
2021/08/23 01:51:33;;;;;;;2.03;0.70;;;24.10;63.30;;;;;;5064169;28;20693;-70
2021/08/23 01:53:59;;;;;;;1.30;0.65;;;24.00;63.20;;;;;;5064645;28;20798;-68
2021/08/23 01:56:27;;;;;;;1.20;0.68;;;24.10;63.30;;;;;;5064607;28;20414;-71
2021/08/23 01:58:58;;;;;;;2.00;0.60;;;24.00;63.20;;;;;;5064227;28;20891;-65
2021/08/23 02:01:24;;;;;;;1.15;0.63;;;24.10;63.90;;;;;;5064373;28;20383;-70
2021/08/23 02:03:49;;;;;;;2.90;0.77;;;24.00;63.10;;;;;;5064431;28;20394;-70
2021/08/23 02:06:16;;;;;;;1.75;0.70;;;24.00;63.20;;;;;;5063765;28;20376;-69
2021/08/23 02:08:42;;;;;;;1.30;0.70;;;24.00;63.50;;;;;;5064283;28;20392;-71
2021/08/23 02:11:08;;;;;;;1.73;0.60;;;24.00;63.30;;;;;;5064623;28;20392;-70
2021/08/23 02:13:34;;;;;;;2.20;0.80;;;24.00;63.30;;;;;;5054785;28;20408;-68
2021/08/23 02:15:59;;;;;;;2.20;0.70;;;24.00;63.30;;;;;;5064331;28;20383;-70
2021/08/23 02:18:25;;;;;;;1.20;0.63;;;23.90;63.80;;;;;;5063463;28;20941;-69
2021/08/23 02:20:51;;;;;;;2.60;0.80;;;24.00;63.00;;;;;;5055109;28;20399;-67
2021/08/23 02:23:16;;;;;;;1.13;0.50;;;24.00;62.90;;;;;;5063704;28;20376;-70
2021/08/23 02:25:42;;;;;;;1.50;0.80;;;23.90;62.80;;;;;;5063711;28;20860;-70
2021/08/23 02:28:08;;;;;;;1.23;0.70;;;23.90;62.90;;;;;;5053135;28;20487;-68
2021/08/23 02:30:36;;;;;;;2.77;1.00;;;23.90;63.00;;;;;;5063937;28;20392;-68
2021/08/23 02:33:02;;;;;;;5.65;0.95;;;23.90;62.60;;;;;;5063358;28;20394;-70
2021/08/23 02:35:27;;;;;;;6.25;1.20;;;23.90;62.40;;;;;;5063979;28;20895;-69
2021/08/23 02:37:53;;;;;;;5.07;1.30;;;23.90;62.20;;;;;;5063894;28;20380;-69
2021/08/23 02:40:18;;;;;;;5.03;1.20;;;23.90;61.90;;;;;;5062802;28;20395;-69
2021/08/23 02:42:44;;;;;;;4.05;1.00;;;23.90;61.70;;;;;;5063080;28;20818;-68
2021/08/23 02:45:10;;;;;;;2.13;0.83;;;23.90;61.80;;;;;;5062876;28;20392;-70
2021/08/23 02:47:36;;;;;;;2.83;0.90;;;23.90;61.90;;;;;;5062882;28;20392;-69
2021/08/23 02:50:07;;;;;;;3.35;0.90;;;23.90;62.00;;;;;;5063150;28;20391;-69
2021/08/23 02:52:34;;;;;;;3.03;0.80;;;23.90;62.20;;;;;;5063134;28;20438;-70
2021/08/23 02:54:59;;;;;;;2.58;0.80;;;23.80;62.20;;;;;;5049799;28;20383;-70
2021/08/23 02:57:25;;;;;;;1.73;0.80;;;23.80;62.20;;;;;;5063186;28;20391;-69
2021/08/23 02:59:51;;;;;;;1.93;0.90;;;23.80;62.20;;;;;;5062794;28;20446;-69
2021/08/23 03:02:16;;;;;;;3.17;1.00;;;23.80;62.30;;;;;;5053069;28;20403;-70
2021/08/23 03:04:42;;;;;;;2.17;0.80;;;23.80;62.20;;;;;;5047642;28;20425;-67
2021/08/23 03:07:07;;;;;;;2.07;0.80;;;23.80;62.70;;;;;;5062786;28;20391;-67
2021/08/23 03:09:33;;;;;;;2.38;0.80;;;23.80;62.40;;;;;;5063143;28;20463;-69
2021/08/23 03:11:59;;;;;;;1.90;0.80;;;23.80;62.60;;;;;;5063296;28;20994;-68
2021/08/23 03:14:25;;;;;;;3.10;0.93;;;23.80;62.60;;;;;;5063572;28;20401;-69
2021/08/23 03:16:51;;;;;;;2.20;0.93;;;23.80;62.60;;;;;;5028872;28;20403;-70
2021/08/23 03:19:16;;;;;;;2.43;1.07;;;23.80;63.80;;;;;;5023090;28;20529;-67
2021/08/23 03:21:42;;;;;;;4.35;1.00;;;23.90;64.10;;;;;;5023139;28;20818;-68
2021/08/23 03:24:08;;;;;;;3.40;1.10;;;23.90;63.90;;;;;;5020609;28;20842;-69
2021/08/23 03:26:33;;;;;;;3.58;0.90;;;24.00;64.20;;;;;;5022644;28;20855;-65
2021/08/23 03:28:59;;;;;;;3.60;0.80;;;24.00;64.50;;;;;;5021977;28;20415;-66
2021/08/23 03:31:25;;;;;;;4.68;1.23;;;24.00;64.50;;;;;;5022691;28;20386;-69
2021/08/23 03:33:51;;;;;;;3.40;0.90;;;24.00;64.40;;;;;;5023387;28;20399;-71
2021/08/23 03:36:16;;;;;;;2.53;0.88;;;23.90;64.40;;;;;;5022846;28;20863;-69
2021/08/23 03:38:42;;;;;;;3.03;0.90;;;24.00;64.30;;;;;;5022922;28;20887;-68
2021/08/23 03:41:10;;;;;;;3.97;1.17;;;24.00;64.30;;;;;;5022432;28;20974;-71
2021/08/23 03:43:36;;;;;;;3.72;0.80;;;24.10;64.80;;;;;;5022582;28;20383;-69
2021/08/23 03:46:01;;;;;;;2.92;1.00;;;24.10;64.70;;;;;;5022637;28;20402;-70
2021/08/23 03:48:27;;;;;;;2.90;0.90;;;24.10;64.30;;;;;;5022274;28;20387;-69
2021/08/23 03:50:53;;;;;;;3.28;0.90;;;24.10;64.60;;;;;;5022284;28;20405;-68
2021/08/23 03:53:18;;;;;;;4.90;0.87;;;24.10;64.80;;;;;;5022380;28;20425;-70
2021/08/23 03:55:44;;;;;;;1.80;0.80;;;24.10;63.80;;;;;;5022103;28;20399;-69
2021/08/23 03:58:09;;;;;;;2.57;0.80;;;24.00;64.00;;;;;;5022419;28;20395;-71
2021/08/23 04:00:35;;;;;;;2.30;0.90;;;24.00;63.70;;;;;;5022382;28;20933;-65
2021/08/23 04:03:01;;;;;;;3.22;0.85;;;23.90;63.40;;;;;;5053894;28;20406;-71
2021/08/23 04:05:26;;;;;;;3.97;0.90;;;23.90;63.00;;;;;;5021537;28;20415;-70
2021/08/23 04:07:52;;;;;;;5.03;0.90;;;23.90;63.20;;;;;;5022613;28;20383;-67
2021/08/23 04:10:18;;;;;;;2.53;0.90;;;23.90;62.90;;;;;;5022583;28;20391;-71
2021/08/23 04:12:43;;;;;;;3.72;1.40;;;23.90;62.60;;;;;;5022486;28;20391;-70
2021/08/23 04:15:10;;;;;;;3.50;1.43;;;23.90;62.20;;;;;;5022101;28;20383;-68
2021/08/23 04:17:35;;;;;;;3.92;1.27;;;23.80;61.60;;;;;;5022319;28;21311;-70
2021/08/23 04:20:02;;;;;;;3.55;1.35;;;23.80;61.30;;;;;;5021657;28;21010;-70
2021/08/23 04:22:28;;;;;;;2.30;1.10;;;23.80;61.20;;;;;;5021861;28;20951;-70
2021/08/23 04:24:53;;;;;;;2.07;1.10;;;23.80;61.10;;;;;;5020903;28;20398;-71
2021/08/23 04:27:19;;;;;;;3.25;1.00;;;23.80;61.00;;;;;;5021472;28;20402;-71
2021/08/23 04:29:44;;;;;;;2.13;1.00;;;23.80;61.00;;;;;;5021696;28;20399;-69
2021/08/23 04:32:10;;;;;;;2.35;1.00;;;23.70;61.10;;;;;;5021632;28;20395;-71
2021/08/23 04:34:36;;;;;;;2.88;1.00;;;23.80;61.10;;;;;;5022853;28;20387;-70
2021/08/23 04:37:03;;;;;;;2.40;1.00;;;23.70;61.10;;;;;;5025340;28;20398;-70
2021/08/23 04:39:31;;;;;;;2.60;1.00;;;23.80;61.20;;;;;;5025555;28;20523;-70
2021/08/23 04:41:57;;;;;;;2.15;1.00;;;23.80;61.30;;;;;;5026059;28;20390;-70
2021/08/23 04:44:22;;;;;;;2.10;0.95;;;23.80;61.30;;;;;;5025650;28;20422;-70
2021/08/23 04:46:50;;;;;;;2.30;1.00;;;23.70;61.30;;;;;;5025377;28;20422;-70
2021/08/23 04:49:18;;;;;;;2.30;0.90;;;23.80;61.40;;;;;;5025359;28;20391;-71
2021/08/23 04:51:44;;;;;;;1.77;0.80;;;23.70;61.40;;;;;;5025590;28;20390;-70
2021/08/23 04:54:10;;;;;;;2.50;1.00;;;23.70;61.40;;;;;;5025489;28;20674;-70
2021/08/23 04:56:36;;;;;;;2.00;1.00;;;23.70;61.40;;;;;;5025843;28;20416;-71
2021/08/23 04:59:02;;;;;;;2.00;1.20;;;23.70;61.40;;;;;;5024631;28;21059;-70
2021/08/23 05:01:27;;;;;;;2.13;1.10;;;23.70;61.50;;;;;;5057216;28;20403;-69
2021/08/23 05:03:53;;;;;;;2.05;0.95;;;23.70;61.50;;;;;;5025304;28;20448;-70
2021/08/23 05:06:19;;;;;;;1.87;1.10;;;23.70;61.50;;;;;;5025693;28;20456;-70
2021/08/23 05:08:44;;;;;;;2.00;0.80;;;23.70;61.50;;;;;;5025262;28;20898;-70
2021/08/23 05:11:11;;;;;;;1.50;0.80;;;23.70;61.50;;;;;;5025123;28;20422;-70
2021/08/23 05:13:36;;;;;;;1.80;0.90;;;23.70;61.60;;;;;;5024956;28;20505;-71
2021/08/23 05:16:03;;;;;;;2.13;0.88;;;23.70;61.50;;;;;;5025116;28;20551;-70
2021/08/23 05:18:29;;;;;;;1.48;0.80;;;23.70;61.60;;;;;;5023654;28;20966;-71
2021/08/23 05:20:54;;;;;;;1.65;0.80;;;23.70;61.60;;;;;;5024468;28;20394;-71
2021/08/23 05:23:20;;;;;;;1.57;0.90;;;23.70;61.60;;;;;;5024972;28;20411;-69
2021/08/23 05:25:45;;;;;;;1.73;0.90;;;23.70;61.60;;;;;;5024717;28;20940;-70
2021/08/23 05:28:11;;;;;;;1.87;1.10;;;23.70;61.60;;;;;;5025113;28;20383;-68
2021/08/23 05:30:37;;;;;;;1.88;0.95;;;23.70;61.60;;;;;;5024841;28;20899;-70
2021/08/23 05:33:03;;;;;;;1.63;1.00;;;23.70;61.60;;;;;;5023929;28;20426;-70
2021/08/23 05:35:29;;;;;;;1.75;1.00;;;23.70;61.60;;;;;;5024526;28;20906;-71
2021/08/23 05:37:54;;;;;;;1.90;0.90;;;23.60;61.50;;;;;;5024460;28;20737;-70
2021/08/23 05:40:23;;;;;;;2.78;1.00;;;23.60;61.60;;;;;;5023177;28;20431;-70
2021/08/23 05:42:50;;;;;;;1.60;0.90;;;23.60;61.60;;;;;;5024611;28;20414;-69
2021/08/23 05:45:16;;;;;;;1.58;0.70;;;23.60;61.60;;;;;;5024352;28;20394;-70
2021/08/23 05:47:42;;;;;;;1.30;0.70;;;23.60;61.50;;;;;;5023891;28;20407;-70
2021/08/23 05:50:08;;;;;;;1.83;0.90;;;23.60;61.50;;;;;;5024429;28;20387;-70
2021/08/23 05:52:34;;;;;;;1.20;0.70;;;23.60;61.50;;;;;;5024484;28;20517;-70
2021/08/23 05:54:59;;;;;;;1.60;0.83;;;23.60;61.60;;;;;;5023870;28;20489;-70
2021/08/23 05:57:27;;;;;;;1.20;0.85;;;23.60;61.60;;;;;;5024648;28;20395;-70
2021/08/23 05:59:53;;;;;;;1.63;0.80;;;23.60;61.60;;;;;;5024454;28;20422;-71
2021/08/23 06:02:19;;;;;;;1.35;0.80;;;23.60;61.70;;;;;;5024287;28;20384;-70
2021/08/23 06:04:45;;;;;;;1.70;0.80;;;23.60;61.70;;;;;;5024481;28;20759;-70
2021/08/23 06:07:10;;;;;;;1.60;0.95;;;23.60;61.60;;;;;;5023610;28;20428;-69
2021/08/23 06:09:36;;;;;;;1.60;0.70;;;23.60;61.60;;;;;;5024303;28;20456;-70
2021/08/23 06:12:02;;;;;;;1.58;0.90;;;23.60;61.70;;;;;;5024423;28;20383;-70
2021/08/23 06:14:28;;;;;;;1.55;0.90;;;23.60;61.70;;;;;;5024298;28;20392;-71
2021/08/23 06:16:54;;;;;;;1.40;0.90;;;23.60;61.70;;;;;;5023931;28;20418;-71
2021/08/23 06:19:19;;;;;;;2.10;1.00;;;23.60;61.80;;;;;;5023492;28;20485;-69
2021/08/23 06:21:45;;;;;;;2.20;0.70;;;23.60;61.70;;;;;;5022812;28;20886;-71
2021/08/23 06:24:11;;;;;;;1.65;1.10;;;23.60;61.70;;;;;;5022167;28;20399;-71
2021/08/23 06:26:36;;;;;;;1.20;0.77;;;23.60;61.70;;;;;;5023993;28;20387;-70
2021/08/23 06:29:02;;;;;;;1.50;0.88;;;23.60;61.70;;;;;;5023285;28;20434;-70
2021/08/23 06:31:28;;;;;;;1.40;0.93;;;23.60;61.70;;;;;;5023983;28;20423;-70
2021/08/23 06:33:53;;;;;;;1.42;0.90;;;23.60;61.70;;;;;;5023681;28;20390;-70
2021/08/23 06:36:19;;;;;;;1.90;1.00;;;23.60;61.70;;;;;;5024032;28;20565;-71
2021/08/23 06:38:45;;;;;;;1.42;0.80;;;23.60;61.70;;;;;;5023759;28;20403;-70
2021/08/23 06:41:18;;;;;;;1.47;0.90;;;23.60;61.70;;;;;;5023170;28;20407;-69
2021/08/23 06:43:45;;;;;;;1.35;0.82;;;23.60;61.80;;;;;;5023522;28;20383;-70
2021/08/23 06:46:10;;;;;;;1.30;0.77;;;23.60;61.70;;;;;;5055555;28;20830;-70
2021/08/23 06:48:36;;;;;;;1.27;0.80;;;23.60;61.80;;;;;;5023788;28;20422;-71
2021/08/23 06:51:02;;;;;;;1.80;0.95;;;23.60;61.70;;;;;;5023160;28;20481;-70
2021/08/23 06:53:27;;;;;;;1.53;0.80;;;23.60;61.70;;;;;;5023603;28;20906;-70
2021/08/23 06:55:53;;;;;;;1.90;0.70;;;23.60;61.70;;;;;;5023194;28;20379;-69
2021/08/23 06:58:19;;;;;;;1.27;0.73;;;23.60;61.70;;;;;;5022989;28;20396;-71
2021/08/23 07:00:45;;;;;;;3.72;0.90;;;23.60;61.70;;;;;;5023791;28;20401;-71
2021/08/23 07:03:10;;;;;;;2.67;0.80;;;23.60;62.10;;;;;;5023340;28;20756;-70
2021/08/23 07:05:36;;;;;;;2.58;1.02;;;23.60;61.90;;;;;;5023778;28;20391;-68
2021/08/23 07:08:02;;;;;;;1.80;0.85;;;23.60;61.80;;;;;;5023680;28;20387;-70
2021/08/23 07:10:28;;;;;;;2.20;0.77;;;23.50;61.80;;;;;;5023425;28;20402;-69
2021/08/23 07:12:54;;;;;;;2.67;1.00;;;23.50;61.90;;;;;;5021514;28;20398;-69
2021/08/23 07:15:19;;;;;;;2.57;0.93;;;23.50;61.90;;;;;;5023181;28;21029;-69
2021/08/23 07:17:45;;;;;;;2.28;0.90;;;23.50;62.00;;;;;;5023144;28;20434;-65
2021/08/23 07:20:11;;;;;;;2.10;0.90;;;23.50;61.90;;;;;;5020715;28;20772;-71
2021/08/23 07:22:37;;;;;;;1.30;0.80;;;23.50;62.00;;;;;;5021413;28;20879;-70
2021/08/23 07:25:04;;;;;;;1.55;0.80;;;23.50;62.00;;;;;;5023054;28;20394;-70
2021/08/23 07:27:32;;;;;;;2.30;0.77;;;23.50;62.00;;;;;;5023373;28;20434;-69
2021/08/23 07:29:57;;;;;;;1.60;0.90;;;23.50;62.00;;;;;;5005753;28;20395;-70
2021/08/23 07:32:23;;;;;;;3.00;0.80;;;23.50;62.00;;;;;;5023409;28;20391;-67
2021/08/23 07:34:49;;;;;;;2.00;0.70;;;23.50;62.00;;;;;;5023067;28;20399;-70
2021/08/23 07:37:15;;;;;;;1.60;1.00;;;23.50;62.00;;;;;;5021926;28;20391;-70
2021/08/23 07:39:43;;;;;;;1.83;0.97;;;23.50;62.00;;;;;;5022983;28;20450;-71
2021/08/23 07:42:09;;;;;;;1.92;0.90;;;23.50;62.00;;;;;;5022940;28;20391;-70
2021/08/23 07:44:34;;;;;;;1.42;0.90;;;23.50;62.00;;;;;;5023309;28;20397;-68
2021/08/23 07:47:00;;;;;;;2.20;0.97;;;23.50;62.10;;;;;;5022826;28;20391;-70
2021/08/23 07:49:25;;;;;;;1.55;0.80;;;23.50;62.10;;;;;;5022952;28;20387;-70
2021/08/23 07:51:51;;;;;;;1.70;0.73;;;23.50;62.10;;;;;;5021816;28;20871;-69
2021/08/23 07:54:18;;;;;;;1.67;0.85;;;23.50;62.00;;;;;;5023113;28;20402;-68
2021/08/23 07:56:45;;;;;;;1.50;0.77;;;23.50;62.10;;;;;;5022959;28;20398;-68
2021/08/23 07:59:10;;;;;;;1.40;0.90;;;23.50;62.10;;;;;;5022310;28;20414;-70
2021/08/23 08:01:36;;;;;;;1.50;0.90;;;23.50;62.10;;;;;;5022971;28;20402;-70
2021/08/23 08:04:02;;;;;;;1.23;0.82;;;23.50;62.10;;;;;;5022645;28;20391;-67
2021/08/23 08:06:28;;;;;;;2.38;0.77;;;23.50;62.10;;;;;;5023518;28;20399;-68
2021/08/23 08:08:53;;;;;;;1.83;0.80;;;23.50;62.10;;;;;;5022466;28;20502;-70
2021/08/23 08:11:20;;;;;;;1.33;0.80;;;23.50;62.10;;;;;;5022315;28;20914;-70
2021/08/23 08:13:45;;;;;;;2.25;1.05;;;23.50;62.00;;;;;;5023029;28;20383;-70
2021/08/23 08:16:11;;;;;;;1.20;0.67;;;23.50;62.10;;;;;;5054350;28;20494;-70
2021/08/23 08:18:37;;;;;;;1.23;0.80;;;23.50;62.00;;;;;;5054387;28;20423;-71
2021/08/23 08:21:04;;;;;;;1.40;0.90;;;23.50;62.00;;;;;;5021330;28;20465;-70
2021/08/23 08:23:30;;;;;;;1.43;0.73;;;23.50;61.90;;;;;;5022764;28;20395;-71
2021/08/23 08:25:56;;;;;;;1.55;0.90;;;23.50;61.90;;;;;;5022622;28;20402;-70
2021/08/23 08:28:22;;;;;;;1.40;0.90;;;23.60;61.90;;;;;;5022074;28;20394;-69
2021/08/23 08:30:47;;;;;;;1.60;0.80;;;23.60;61.90;;;;;;5022477;28;20395;-70
2021/08/23 08:33:15;;;;;;;1.80;0.98;;;23.60;61.90;;;;;;5021901;28;20733;-67
2021/08/23 08:35:41;;;;;;;1.30;0.70;;;23.50;61.80;;;;;;5022486;28;20390;-70
2021/08/23 08:38:06;;;;;;;1.60;0.80;;;23.50;61.90;;;;;;5022383;28;20449;-70
2021/08/23 08:40:32;;;;;;;1.70;0.80;;;23.50;62.40;;;;;;5022634;28;20823;-70
2021/08/23 08:42:58;;;;;;;1.25;0.73;;;23.50;61.90;;;;;;5054176;28;20410;-70
2021/08/23 08:45:26;;;;;;;1.65;0.98;;;23.50;61.90;;;;;;5022221;28;21070;-69
2021/08/23 08:47:55;;;;;;;1.20;0.70;;;23.50;61.90;;;;;;5022514;28;20407;-70
2021/08/23 08:50:23;;;;;;;1.52;0.77;;;23.50;61.90;;;;;;5022104;28;20485;-67
2021/08/23 08:52:49;;;;;;;1.47;1.00;;;23.50;61.80;;;;;;5022694;28;20478;-71
2021/08/23 08:55:16;;;;;;;1.77;0.80;;;23.50;61.90;;;;;;5020071;28;20914;-66
2021/08/23 08:57:42;;;;;;;1.40;0.82;;;23.50;61.80;;;;;;5022411;28;20434;-67
2021/08/23 09:00:09;;;;;;;1.65;0.90;;;23.50;61.90;;;;;;5020213;28;20423;-70
2021/08/23 09:02:35;;;;;;;1.70;1.03;;;23.60;61.90;;;;;;5020042;28;20391;-69
2021/08/23 09:05:05;;;;;;;1.38;0.82;;;23.50;61.90;;;;;;5021695;28;20394;-69
2021/08/23 09:07:38;;;;;;;1.50;0.90;;;23.60;62.00;;;;;;5021845;28;20879;-70
2021/08/23 09:10:25;;;;;;;1.48;0.90;;;23.50;61.80;;;;;;5022073;28;20386;-71
2021/08/23 09:13:03;;;;;;;1.27;0.82;;;23.50;61.70;;;;;;5021866;28;20402;-67
2021/08/23 09:15:29;;;;;;;1.70;1.05;;;23.60;61.70;;;;;;5021481;28;20383;-70
2021/08/23 09:18:06;;;;;;;1.20;0.80;;;23.60;61.90;;;;;;5053293;28;20415;-69
2021/08/23 09:20:34;;;;;;;1.52;1.00;;;23.60;61.90;;;;;;5021854;28;20429;-70
2021/08/23 09:23:13;;;;;;;1.10;0.80;;;23.50;61.90;;;;;;5024730;28;20929;-70
2021/08/23 09:25:41;;;;;;;1.77;0.90;;;23.50;61.80;;;;;;5025584;28;20402;-68
2021/08/23 09:28:09;;;;;;;1.52;1.00;;;23.50;61.70;;;;;;5023890;28;20918;-70
2021/08/23 09:30:36;;;;;;;1.40;0.80;;;23.50;61.90;;;;;;5025300;28;20395;-71
2021/08/23 09:33:05;;;;;;;1.25;0.80;;;23.50;61.90;;;;;;5025260;28;20441;-69
2021/08/23 09:35:35;;;;;;;1.50;0.88;;;23.50;61.80;;;;;;5025043;28;20445;-70
2021/08/23 09:38:06;;;;;;;1.20;0.90;;;23.60;61.90;;;;;;5025485;28;20387;-67
2021/08/23 09:40:32;;;;;;;1.40;0.80;;;23.60;61.80;;;;;;5023634;28;21493;-67
2021/08/23 09:43:11;;;;;;;1.40;0.90;;;23.60;61.80;;;;;;5025060;28;20395;-70
2021/08/23 09:45:44;;;;;;;1.48;0.90;;;23.50;61.70;;;;;;5025051;28;20399;-70
2021/08/23 09:48:10;;;;;;;1.30;0.93;;;23.60;61.80;;;;;;5025377;28;20474;-70
2021/08/23 09:50:43;;;;;;;1.50;0.70;;;23.60;61.80;;;;;;5024769;28;20406;-70
2021/08/23 09:53:14;;;;;;;1.67;1.00;;;23.50;61.70;;;;;;5024730;28;20470;-70
2021/08/23 09:55:42;;;;;;;2.00;1.00;;;23.50;61.70;;;;;;5023449;28;20409;-70
2021/08/23 09:58:09;;;;;;;1.20;0.80;;;23.50;61.60;;;;;;5023442;28;20391;-69
2021/08/23 10:00:37;;;;;;;2.13;0.85;;;23.50;61.60;;;;;;5023910;28;20410;-71
2021/08/23 10:03:14;;;;;;;1.70;0.90;;;23.50;61.60;;;;;;5023821;28;21021;-70
2021/08/23 10:05:49;;;;;;;1.30;0.90;;;23.50;61.70;;;;;;5024349;28;20399;-70
2021/08/23 10:08:21;;;;;;;1.58;0.82;;;23.50;61.70;;;;;;5024137;28;20387;-70
2021/08/23 10:10:46;;;;;;;1.52;0.80;;;23.50;61.60;;;;;;5022478;28;20391;-71
2021/08/23 10:13:13;;;;;;;1.30;0.90;;;23.50;61.60;;;;;;5023333;28;21237;-70
2021/08/23 10:15:40;;;;;;;1.30;0.80;;;23.50;61.70;;;;;;5024105;28;20395;-69
2021/08/23 10:18:08;;;;;;;1.75;0.90;;;23.50;61.70;;;;;;5023874;28;20914;-71
2021/08/23 10:20:35;;;;;;;1.27;0.90;;;23.50;61.70;;;;;;5023507;28;20455;-68
2021/08/23 10:23:02;;;;;;;2.05;0.80;;;23.50;61.60;;;;;;5024417;28;20764;-68
2021/08/23 10:25:28;;;;;;;1.60;0.95;;;23.40;61.60;;;;;;5024269;28;20449;-69
2021/08/23 10:28:08;;;;;;;1.23;0.80;;;23.50;61.60;;;;;;5024148;28;20474;-67
2021/08/23 10:30:34;;;;;;;1.30;0.80;;;23.50;61.70;;;;;;5022719;28;20399;-69
2021/08/23 10:33:33;;;;;;;1.38;0.90;;;23.50;61.70;;;;;;5024185;28;20759;-71
2021/08/23 10:35:59;;;;;;;1.30;0.90;;;23.50;61.60;;;;;;5020159;28;20399;-68
2021/08/23 10:38:26;;;;;;;1.75;0.80;;;23.50;61.60;;;;;;5024157;28;20395;-69
2021/08/23 10:41:10;;;;;;;1.23;0.80;;;23.50;61.60;;;;;;5024096;28;20853;-68
2021/08/23 10:43:51;;;;;;;1.10;0.80;;;23.50;61.50;;;;;;5024384;28;20485;-70
2021/08/23 10:46:34;;;;;;;1.25;0.80;;;23.50;61.60;;;;;;5024068;28;20476;-71
2021/08/23 10:49:14;;;;;;;1.30;0.77;;;23.50;61.60;;;;;;5023600;28;20399;-70
2021/08/23 10:51:42;;;;;;;1.50;0.80;;;23.50;61.70;;;;;;5023905;28;20387;-70
2021/08/23 10:54:33;;;;;;;1.38;0.82;;;23.50;61.70;;;;;;5023870;28;20414;-67
2021/08/23 10:57:01;;;;;;;1.40;0.80;;;23.50;61.60;;;;;;5023664;28;20398;-70
2021/08/23 10:59:42;;;;;;;1.90;0.90;;;23.50;61.70;;;;;;5023314;28;20480;-70
2021/08/23 11:02:14;;;;;;;1.00;0.70;;;23.50;61.70;;;;;;5022198;28;20395;-71
2021/08/23 11:04:57;;;;;;;1.23;0.82;;;23.50;61.60;;;;;;5022233;28;20403;-71
2021/08/23 11:07:28;;;;;;;1.55;0.85;;;23.50;61.60;;;;;;5023259;28;21028;-66
2021/08/23 11:10:09;;;;;;;1.45;0.90;;;23.50;61.60;;;;;;5055657;28;20445;-70
2021/08/23 11:12:47;;;;;;;1.35;0.90;;;23.50;61.50;;;;;;5023499;28;20430;-70
2021/08/23 11:15:16;;;;;;;1.48;0.90;;;23.50;61.50;;;;;;5023063;28;20399;-70
2021/08/23 11:17:50;;;;;;;1.23;0.80;;;23.50;61.60;;;;;;5023453;28;20411;-66
2021/08/23 11:20:22;;;;;;;1.20;0.80;;;23.50;61.60;;;;;;5023137;28;20532;-72
2021/08/23 11:22:53;;;;;;;1.30;0.70;;;23.50;61.60;;;;;;5055147;28;20398;-71
2021/08/23 11:25:34;;;;;;;1.10;0.70;;;23.50;61.60;;;;;;5054286;28;20757;-71
2021/08/23 11:28:03;;;;;;;1.60;0.90;;;23.50;61.50;;;;;;5023173;28;20489;-68
2021/08/23 11:30:36;;;;;;;1.13;0.70;;;23.50;61.50;;;;;;5023214;28;20391;-70
2021/08/23 11:33:02;;;;;;;1.70;0.77;;;23.50;61.60;;;;;;5023433;28;20474;-71
2021/08/23 11:35:28;;;;;;;1.30;0.90;;;23.50;61.60;;;;;;5022905;28;20441;-71
2021/08/23 11:37:56;;;;;;;1.55;0.95;;;23.50;61.60;;;;;;5021786;28;20395;-68
2021/08/23 11:40:22;;;;;;;1.23;0.80;;;23.50;61.50;;;;;;5022384;28;20594;-68
2021/08/23 11:42:52;;;;;;;1.20;0.73;;;23.50;61.50;;;;;;5022427;28;20387;-70
2021/08/23 11:45:27;;;;;;;1.10;0.60;;;23.50;61.50;;;;;;5021721;28;20395;-70
2021/08/23 11:47:53;;;;;;;1.48;0.93;;;23.50;61.50;;;;;;5022797;28;20421;-68
2021/08/23 11:50:20;;;;;;;1.15;0.70;;;23.40;61.50;;;;;;5054762;28;20399;-71
2021/08/23 11:52:50;;;;;;;1.27;0.70;;;23.50;61.60;;;;;;5022460;28;20440;-71
2021/08/23 11:55:39;;;;;;;1.25;0.90;;;23.50;61.50;;;;;;5038023;28;20907;-70
2021/08/23 11:58:14;;;;;;;1.58;0.80;;;23.50;61.50;;;;;;5022629;28;20482;-70
2021/08/23 12:00:43;;;;;;;3.05;0.80;;;23.50;61.60;;;;;;5023010;28;20414;-70
2021/08/23 12:03:12;;;;;;;1.77;0.90;;;23.50;61.10;;;;;;5023151;28;20387;-66
2021/08/23 12:05:42;;;;;;;2.10;1.00;;;23.40;60.60;;;;;;5022400;28;20402;-69
2021/08/23 12:08:20;;;;;;;2.50;1.00;;;23.40;60.10;;;;;;5022984;28;20383;-68
2021/08/23 12:11:09;;;;;;;1.80;1.15;;;23.70;60.50;;;;;;5022169;28;20391;-68
2021/08/23 12:13:39;;;;;;;2.08;1.20;;;23.90;59.40;;;;;;5022392;28;20532;-69
2021/08/23 12:16:12;;;;;;;2.08;1.00;;;24.10;59.10;;;;;;5022232;28;20402;-68
2021/08/23 12:18:39;;;;;;;1.98;1.10;;;24.20;58.90;;;;;;5022124;28;20419;-67
2021/08/23 12:21:20;;;;;;;2.73;1.30;;;24.20;58.10;;;;;;5022358;28;20399;-68
2021/08/23 12:24:01;;;;;;;1.98;0.90;;;24.30;57.90;;;;;;5022652;28;20800;-68
2021/08/23 12:26:35;;;;;;;1.88;0.80;;;24.30;56.40;;;;;;5021934;28;20383;-68
2021/08/23 12:29:25;;;;;;;2.35;1.10;;;24.30;55.30;;;;;;5022082;28;20392;-68
2021/08/23 12:31:58;;;;;;;1.77;0.90;;;24.60;55.70;;;;;;5021843;28;20398;-68
2021/08/23 12:34:27;;;;;;;2.20;0.90;;;24.60;55.80;;;;;;5021931;28;20402;-68
2021/08/23 12:36:55;;;;;;;1.60;0.80;;;24.70;56.00;;;;;;5021897;28;20410;-65
2021/08/23 12:39:20;;;;;;;1.40;0.80;;;24.80;55.80;;;;;;5021134;28;20415;-68
2021/08/23 12:41:49;;;;;;;2.05;0.85;;;24.80;56.10;;;;;;5020972;28;20445;-68
2021/08/23 12:44:15;;;;;;;1.77;0.90;;;24.80;55.90;;;;;;5020771;28;20389;-66
2021/08/23 12:46:42;;;;;;;1.90;1.07;;;24.90;55.70;;;;;;5020752;28;20456;-68
2021/08/23 12:49:08;;;;;;;2.23;1.03;;;24.90;55.60;;;;;;5021055;28;20407;-65
2021/08/23 12:51:35;;;;;;;2.03;0.90;;;25.00;55.50;;;;;;5020620;28;21166;-70
2021/08/23 12:54:00;;;;;;;1.48;0.90;;;25.00;55.40;;;;;;5020628;28;20399;-69